sensor_id;sensor_type;location;lat;lon;timestamp;pressure;altitude;pressure_sealevel;temperature;humidity
12949;BME280;6539;49.476;8.484;2024-02-04T00:01:01;101606.16;;;9.86;100.00
12949;BME280;6539;49.476;8.484;2024-02-04T00:03:50;101610.00;;;9.81;100.00
12949;BME280;6539;49.476;8.484;2024-02-04T00:06:36;101610.81;;;9.82;100.00
12949;BME280;6539;49.476;8.484;2024-02-04T00:09:22;101605.69;;;9.80;100.00
12949;BME280;6539;49.476;8.484;2024-02-04T00:12:11;101599.84;;;9.82;100.00
12949;BME280;6539;49.476;8.484;2024-02-04T00:14:59;101606.84;;;9.79;100.00
12949;BME280;6539;49.476;8.484;2024-02-04T00:17:45;101602.88;;;9.77;100.00
12949;BME280;6539;49.476;8.484;2024-02-04T00:20:31;101603.75;;;9.81;100.00
12949;BME280;6539;49.476;8.484;2024-02-04T00:23:18;101607.94;;;9.75;100.00
12949;BME280;6539;49.476;8.484;2024-02-04T00:26:07;101612.25;;;9.72;100.00
12949;BME280;6539;49.476;8.484;2024-02-04T00:28:53;101607.94;;;9.75;100.00
12949;BME280;6539;49.476;8.484;2024-02-04T00:31:39;101601.31;;;9.76;100.00
12949;BME280;6539;49.476;8.484;2024-02-04T00:34:25;101601.22;;;9.69;100.00
12949;BME280;6539;49.476;8.484;2024-02-04T00:37:11;101599.56;;;9.64;100.00
12949;BME280;6539;49.476;8.484;2024-02-04T00:40:02;101592.88;;;9.62;100.00
12949;BME280;6539;49.476;8.484;2024-02-04T00:42:49;101594.84;;;9.61;100.00
12949;BME280;6539;49.476;8.484;2024-02-04T00:45:38;101586.19;;;9.59;100.00
12949;BME280;6539;49.476;8.484;2024-02-04T00:48:24;101597.50;;;9.58;100.00
12949;BME280;6539;49.476;8.484;2024-02-04T00:51:10;101608.06;;;9.56;100.00
12949;BME280;6539;49.476;8.484;2024-02-04T00:53:56;101597.00;;;9.49;100.00
12949;BME280;6539;49.476;8.484;2024-02-04T00:56:44;101597.00;;;9.49;100.00
12949;BME280;6539;49.476;8.484;2024-02-04T00:59:33;101597.72;;;9.46;100.00
12949;BME280;6539;49.476;8.484;2024-02-04T01:02:24;101593.72;;;9.40;100.00
12949;BME280;6539;49.476;8.484;2024-02-04T01:05:10;101582.75;;;9.40;100.00
12949;BME280;6539;49.476;8.484;2024-02-04T01:07:59;101587.75;;;9.34;100.00
12949;BME280;6539;49.476;8.484;2024-02-04T01:10:48;101590.88;;;9.33;100.00
12949;BME280;6539;49.476;8.484;2024-02-04T01:13:36;101576.75;;;9.31;100.00
12949;BME280;6539;49.476;8.484;2024-02-04T01:16:25;101575.16;;;9.30;100.00
12949;BME280;6539;49.476;8.484;2024-02-04T01:19:12;101560.69;;;9.29;100.00
12949;BME280;6539;49.476;8.484;2024-02-04T01:21:58;101575.16;;;9.30;100.00
12949;BME280;6539;49.476;8.484;2024-02-04T01:24:44;101589.59;;;9.27;100.00
12949;BME280;6539;49.476;8.484;2024-02-04T01:27:35;101596.66;;;9.28;100.00
12949;BME280;6539;49.476;8.484;2024-02-04T01:30:21;101587.25;;;9.25;100.00
12949;BME280;6539;49.476;8.484;2024-02-04T01:33:09;101588.00;;;9.26;100.00
12949;BME280;6539;49.476;8.484;2024-02-04T01:35:55;101596.66;;;9.28;100.00
12949;BME280;6539;49.476;8.484;2024-02-04T01:38:42;101603.72;;;9.29;100.00
12949;BME280;6539;49.476;8.484;2024-02-04T01:41:28;101582.53;;;9.26;100.00
12949;BME280;6539;49.476;8.484;2024-02-04T01:44:16;101589.53;;;9.23;100.00
12949;BME280;6539;49.476;8.484;2024-02-04T01:47:02;101596.56;;;9.20;100.00
12949;BME280;6539;49.476;8.484;2024-02-04T01:49:53;101596.56;;;9.20;100.00
12949;BME280;6539;49.476;8.484;2024-02-04T01:52:44;101582.44;;;9.18;100.00
12949;BME280;6539;49.476;8.484;2024-02-04T01:55:31;101590.66;;;9.18;100.00
12949;BME280;6539;49.476;8.484;2024-02-04T01:58:17;101580.03;;;9.17;100.00
12949;BME280;6539;49.476;8.484;2024-02-04T02:01:04;101595.25;;;9.14;100.00
12949;BME280;6539;49.476;8.484;2024-02-04T02:03:56;101592.09;;;9.12;100.00
12949;BME280;6539;49.476;8.484;2024-02-04T02:06:42;101590.66;;;9.18;100.00
12949;BME280;6539;49.476;8.484;2024-02-04T02:09:31;101587.16;;;9.21;100.00
12949;BME280;6539;49.476;8.484;2024-02-04T02:12:25;101584.78;;;9.20;100.00
12949;BME280;6539;49.476;8.484;2024-02-04T02:15:30;101585.59;;;9.20;100.00
12949;BME280;6539;49.476;8.484;2024-02-04T02:19:33;101572.31;;;9.23;100.00
12949;BME280;6539;49.476;8.484;2024-02-04T02:25:03;101568.41;;;9.23;100.00
12949;BME280;6539;49.476;8.484;2024-02-04T02:27:53;101562.94;;;9.23;100.00
12949;BME280;6539;49.476;8.484;2024-02-04T02:30:40;101551.97;;;9.23;100.00
12949;BME280;6539;49.476;8.484;2024-02-04T02:33:26;101552.69;;;9.47;100.00
12949;BME280;6539;49.476;8.484;2024-02-04T02:36:21;101554.00;;;9.53;100.00
12949;BME280;6539;49.476;8.484;2024-02-04T02:39:23;101559.88;;;9.55;100.00
12949;BME280;6539;49.476;8.484;2024-02-04T02:42:14;101560.56;;;9.48;100.00
12949;BME280;6539;49.476;8.484;2024-02-04T02:45:03;101558.78;;;9.59;100.00
12949;BME280;6539;49.476;8.484;2024-02-04T02:47:54;101542.25;;;9.56;100.00
12949;BME280;6539;49.476;8.484;2024-02-04T02:50:42;101541.22;;;9.64;100.00
12949;BME280;6539;49.476;8.484;2024-02-04T02:53:33;101544.03;;;9.71;100.00
12949;BME280;6539;49.476;8.484;2024-02-04T02:56:19;101553.34;;;9.63;100.00
12949;BME280;6539;49.476;8.484;2024-02-04T02:59:07;101550.31;;;9.71;100.00
12949;BME280;6539;49.476;8.484;2024-02-04T03:01:56;101553.34;;;9.63;100.00
12949;BME280;6539;49.476;8.484;2024-02-04T03:04:44;101550.97;;;9.61;100.00
12949;BME280;6539;49.476;8.484;2024-02-04T03:07:30;101554.66;;;9.72;100.00
12949;BME280;6539;49.476;8.484;2024-02-04T03:10:16;101550.72;;;9.70;100.00
12949;BME280;6539;49.476;8.484;2024-02-04T03:13:03;101548.69;;;9.67;100.00
12949;BME280;6539;49.476;8.484;2024-02-04T03:15:49;101561.34;;;9.75;100.00
12949;BME280;6539;49.476;8.484;2024-02-04T03:18:35;101549.53;;;9.71;100.00
12949;BME280;6539;49.476;8.484;2024-02-04T03:21:24;101532.34;;;9.74;100.00
12949;BME280;6539;49.476;8.484;2024-02-04T03:24:10;101534.66;;;9.72;100.00
12949;BME280;6539;49.476;8.484;2024-02-04T03:26:59;101538.56;;;9.71;100.00
12949;BME280;6539;49.476;8.484;2024-02-04T03:29:45;101540.19;;;9.75;100.00
12949;BME280;6539;49.476;8.484;2024-02-04T03:32:31;101539.78;;;9.73;100.00
12949;BME280;6539;49.476;8.484;2024-02-04T03:35:19;101542.53;;;9.73;100.00
12949;BME280;6539;49.476;8.484;2024-02-04T03:38:08;101542.91;;;9.72;100.00
12949;BME280;6539;49.476;8.484;2024-02-04T03:40:55;101546.78;;;9.71;100.00
12949;BME280;6539;49.476;8.484;2024-02-04T03:43:42;101547.63;;;9.75;100.00
12949;BME280;6539;49.476;8.484;2024-02-04T03:46:28;101550.78;;;9.77;100.00
12949;BME280;6539;49.476;8.484;2024-02-04T03:49:20;101543.69;;;9.72;100.00
12949;BME280;6539;49.476;8.484;2024-02-04T03:52:06;101547.69;;;9.78;100.00
12949;BME280;6539;49.476;8.484;2024-02-04T03:54:55;101541.69;;;9.69;100.00
12949;BME280;6539;49.476;8.484;2024-02-04T03:57:41;101539.41;;;9.75;100.00
12949;BME280;6539;49.476;8.484;2024-02-04T04:00:30;101536.66;;;9.75;100.00
12949;BME280;6539;49.476;8.484;2024-02-04T04:03:16;101523.63;;;9.68;100.00
12949;BME280;6539;49.476;8.484;2024-02-04T04:06:02;101539.31;;;9.68;100.00
12949;BME280;6539;49.476;8.484;2024-02-04T04:08:48;101537.06;;;9.77;100.00
12949;BME280;6539;49.476;8.484;2024-02-04T04:11:34;101530.41;;;9.74;100.00
12949;BME280;6539;49.476;8.484;2024-02-04T04:14:20;101533.56;;;9.76;100.00
12949;BME280;6539;49.476;8.484;2024-02-04T04:17:06;101522.06;;;9.67;100.00
12949;BME280;6539;49.476;8.484;2024-02-04T04:19:52;101527.66;;;9.74;100.00
12949;BME280;6539;49.476;8.484;2024-02-04T04:22:39;101526.03;;;9.70;100.00
12949;BME280;6539;49.476;8.484;2024-02-04T04:25:26;101520.06;;;9.64;100.00
12949;BME280;6539;49.476;8.484;2024-02-04T04:28:14;101529.81;;;9.62;100.00
12949;BME280;6539;49.476;8.484;2024-02-04T04:31:01;101514.97;;;9.63;100.00
12949;BME280;6539;49.476;8.484;2024-02-04T04:33:49;101513.38;;;9.62;100.00
12949;BME280;6539;49.476;8.484;2024-02-04T04:36:35;101518.84;;;9.62;100.00
12949;BME280;6539;49.476;8.484;2024-02-04T04:39:21;101507.13;;;9.61;100.00
12949;BME280;6539;49.476;8.484;2024-02-04T04:42:13;101524.41;;;9.65;100.00
12949;BME280;6539;49.476;8.484;2024-02-04T04:44:59;101524.34;;;9.62;100.00
12949;BME280;6539;49.476;8.484;2024-02-04T04:47:45;101534.13;;;9.59;100.00
12949;BME280;6539;49.476;8.484;2024-02-04T04:50:31;101526.31;;;9.61;100.00
12949;BME280;6539;49.476;8.484;2024-02-04T04:53:17;101536.91;;;9.63;100.00
12949;BME280;6539;49.476;8.484;2024-02-04T04:56:06;101522.75;;;9.61;100.00
12949;BME280;6539;49.476;8.484;2024-02-04T04:58:52;101527.94;;;9.66;100.00
12949;BME280;6539;49.476;8.484;2024-02-04T05:01:46;101521.59;;;9.62;100.00
12949;BME280;6539;49.476;8.484;2024-02-04T05:04:35;101520.81;;;9.61;100.00
12949;BME280;6539;49.476;8.484;2024-02-04T05:07:26;101529.75;;;9.55;100.00
12949;BME280;6539;49.476;8.484;2024-02-04T05:10:14;101527.41;;;9.57;100.00
12949;BME280;6539;49.476;8.484;2024-02-04T05:13:06;101526.66;;;9.60;100.00
12949;BME280;6539;49.476;8.484;2024-02-04T05:15:52;101533.72;;;9.61;100.00
12949;BME280;6539;49.476;8.484;2024-02-04T05:18:43;101516.50;;;9.60;100.00
12949;BME280;6539;49.476;8.484;2024-02-04T05:21:29;101524.03;;;9.67;100.00
12949;BME280;6539;49.476;8.484;2024-02-04T05:24:18;101530.69;;;9.66;100.00
12949;BME280;6539;49.476;8.484;2024-02-04T05:27:05;101533.34;;;9.62;100.00
12949;BME280;6539;49.476;8.484;2024-02-04T05:29:51;101553.03;;;9.68;100.00
12949;BME280;6539;49.476;8.484;2024-02-04T05:32:39;101546.72;;;9.64;100.00
12949;BME280;6539;49.476;8.484;2024-02-04T05:35:25;101546.06;;;9.74;100.00
12949;BME280;6539;49.476;8.484;2024-02-04T05:38:14;101554.19;;;9.67;100.00
12949;BME280;6539;49.476;8.484;2024-02-04T05:41:02;101555.78;;;9.68;100.00
12949;BME280;6539;49.476;8.484;2024-02-04T05:43:50;101543.59;;;9.65;100.00
12949;BME280;6539;49.476;8.484;2024-02-04T05:46:38;101546.75;;;9.67;100.00
12949;BME280;6539;49.476;8.484;2024-02-04T05:49:24;101540.47;;;9.67;100.00
12949;BME280;6539;49.476;8.484;2024-02-04T05:52:14;101547.84;;;9.63;100.00
12949;BME280;6539;49.476;8.484;2024-02-04T05:55:05;101552.63;;;9.66;100.00
12949;BME280;6539;49.476;8.484;2024-02-04T05:57:51;101553.06;;;9.71;100.00
12949;BME280;6539;49.476;8.484;2024-02-04T06:00:42;101552.25;;;9.67;100.00
12949;BME280;6539;49.476;8.484;2024-02-04T06:03:31;101561.69;;;9.70;100.00
12949;BME280;6539;49.476;8.484;2024-02-04T06:06:18;101582.09;;;9.72;100.00
12949;BME280;6539;49.476;8.484;2024-02-04T06:09:06;101573.44;;;9.70;100.00
12949;BME280;6539;49.476;8.484;2024-02-04T06:11:54;101565.16;;;9.67;100.00
12949;BME280;6539;49.476;8.484;2024-02-04T06:14:40;101560.50;;;9.71;100.00
12949;BME280;6539;49.476;8.484;2024-02-04T06:17:28;101561.25;;;9.68;100.00
12949;BME280;6539;49.476;8.484;2024-02-04T06:20:14;101562.09;;;9.72;100.00
12949;BME280;6539;49.476;8.484;2024-02-04T06:23:03;101566.75;;;9.68;100.00
12949;BME280;6539;49.476;8.484;2024-02-04T06:25:49;101566.75;;;9.68;100.00
12949;BME280;6539;49.476;8.484;2024-02-04T06:28:35;101555.78;;;9.68;100.00
12949;BME280;6539;49.476;8.484;2024-02-04T06:31:24;101546.34;;;9.65;100.00
12949;BME280;6539;49.476;8.484;2024-02-04T06:34:15;101549.13;;;9.69;100.00
12949;BME280;6539;49.476;8.484;2024-02-04T06:37:03;101544.38;;;9.66;100.00
12949;BME280;6539;49.476;8.484;2024-02-04T06:39:49;101541.53;;;9.59;100.00
12949;BME280;6539;49.476;8.484;2024-02-04T06:42:36;101534.38;;;9.51;100.00
12949;BME280;6539;49.476;8.484;2024-02-04T06:45:26;101548.28;;;9.39;100.00
12949;BME280;6539;49.476;8.484;2024-02-04T06:48:13;101544.66;;;9.31;100.00
12949;BME280;6539;49.476;8.484;2024-02-04T06:51:01;101542.19;;;9.23;100.00
12949;BME280;6539;49.476;8.484;2024-02-04T06:53:47;101537.72;;;9.14;100.00
12949;BME280;6539;49.476;8.484;2024-02-04T06:56:34;101540.00;;;9.09;100.00
12949;BME280;6539;49.476;8.484;2024-02-04T06:59:20;101538.78;;;9.06;100.00
12949;BME280;6539;49.476;8.484;2024-02-04T07:02:08;101543.41;;;9.02;100.00
12949;BME280;6539;49.476;8.484;2024-02-04T07:04:54;101554.78;;;9.04;100.00
12949;BME280;6539;49.476;8.484;2024-02-04T07:07:40;101562.16;;;9.00;100.00
12949;BME280;6539;49.476;8.484;2024-02-04T07:10:26;101554.75;;;9.01;100.00
12949;BME280;6539;49.476;8.484;2024-02-04T07:13:16;101558.56;;;8.96;100.00
12949;BME280;6539;49.476;8.484;2024-02-04T07:16:05;101563.63;;;8.94;100.00
12949;BME280;6539;49.476;8.484;2024-02-04T07:18:51;101552.66;;;8.94;100.00
12949;BME280;6539;49.476;8.484;2024-02-04T07:21:37;101552.66;;;8.94;100.00
12949;BME280;6539;49.476;8.484;2024-02-04T07:24:23;101549.38;;;8.85;100.00
12949;BME280;6539;49.476;8.484;2024-02-04T07:27:12;101556.75;;;8.81;100.00
12949;BME280;6539;49.476;8.484;2024-02-04T07:29:58;101555.16;;;8.80;100.00
12949;BME280;6539;49.476;8.484;2024-02-04T07:32:46;101552.22;;;8.70;100.00
12949;BME280;6539;49.476;8.484;2024-02-04T07:35:35;101550.94;;;8.64;100.00
12949;BME280;6539;49.476;8.484;2024-02-04T07:38:23;101550.56;;;8.65;100.00
12949;BME280;6539;49.476;8.484;2024-02-04T07:41:15;101558.75;;;8.62;100.00
12949;BME280;6539;49.476;8.484;2024-02-04T07:44:01;101552.31;;;8.54;100.00
12949;BME280;6539;49.476;8.484;2024-02-04T07:46:49;101558.59;;;8.55;100.00
12949;BME280;6539;49.476;8.484;2024-02-04T07:49:35;101553.91;;;8.55;100.00
12949;BME280;6539;49.476;8.484;2024-02-04T07:52:21;101551.56;;;8.54;100.00
12949;BME280;6539;49.476;8.484;2024-02-04T07:55:10;101548.81;;;8.54;100.00
12949;BME280;6539;49.476;8.484;2024-02-04T07:57:56;101546.56;;;8.59;100.00
12949;BME280;6539;49.476;8.484;2024-02-04T08:00:45;101547.78;;;8.62;100.00
12949;BME280;6539;49.476;8.484;2024-02-04T08:03:33;101545.84;;;8.62;100.00
12949;BME280;6539;49.476;8.484;2024-02-04T08:06:22;101546.28;;;8.64;100.00
12949;BME280;6539;49.476;8.484;2024-02-04T08:09:10;101538.50;;;8.66;100.00
12949;BME280;6539;49.476;8.484;2024-02-04T08:11:58;101545.19;;;8.69;100.00
12949;BME280;6539;49.476;8.484;2024-02-04T08:14:44;101544.53;;;8.75;100.00
12949;BME280;6539;49.476;8.484;2024-02-04T08:17:30;101545.66;;;8.74;100.00
12949;BME280;6539;49.476;8.484;2024-02-04T08:20:18;101535.56;;;8.78;100.00
12949;BME280;6539;49.476;8.484;2024-02-04T08:23:06;101560.63;;;8.80;100.00
12949;BME280;6539;49.476;8.484;2024-02-04T08:25:52;101557.59;;;8.85;100.00
12949;BME280;6539;49.476;8.484;2024-02-04T08:28:38;101562.78;;;8.90;100.00
12949;BME280;6539;49.476;8.484;2024-02-04T08:31:25;101562.34;;;8.88;100.00
12949;BME280;6539;49.476;8.484;2024-02-04T08:34:13;101563.56;;;8.91;100.00
12949;BME280;6539;49.476;8.484;2024-02-04T08:37:02;101555.84;;;8.96;100.00
12949;BME280;6539;49.476;8.484;2024-02-04T08:39:53;101553.03;;;8.93;100.00
12949;BME280;6539;49.476;8.484;2024-02-04T08:42:39;101562.03;;;8.93;100.00
12949;BME280;6539;49.476;8.484;2024-02-04T08:45:28;101562.59;;;9.02;100.00
12949;BME280;6539;49.476;8.484;2024-02-04T08:48:14;101558.63;;;9.00;100.00
12949;BME280;6539;49.476;8.484;2024-02-04T08:51:09;101562.47;;;8.95;100.00
12949;BME280;6539;49.476;8.484;2024-02-04T08:53:58;101564.78;;;8.93;100.00
12949;BME280;6539;49.476;8.484;2024-02-04T08:56:46;101562.41;;;8.92;100.00
12949;BME280;6539;49.476;8.484;2024-02-04T08:59:35;101552.97;;;8.89;100.00
12949;BME280;6539;49.476;8.484;2024-02-04T09:02:21;101563.91;;;8.89;100.00
12949;BME280;6539;49.476;8.484;2024-02-04T09:05:07;101566.00;;;8.96;100.00
12949;BME280;6539;49.476;8.484;2024-02-04T09:07:53;101565.69;;;9.01;100.00
12949;BME280;6539;49.476;8.484;2024-02-04T09:10:42;101568.06;;;9.02;100.00
12949;BME280;6539;49.476;8.484;2024-02-04T09:13:28;101567.38;;;9.09;100.00
12949;BME280;6539;49.476;8.484;2024-02-04T09:16:16;101574.00;;;9.08;100.00
12949;BME280;6539;49.476;8.484;2024-02-04T09:19:05;101563.19;;;9.15;100.00
12949;BME280;6539;49.476;8.484;2024-02-04T09:21:51;101548.09;;;9.25;100.00
12949;BME280;6539;49.476;8.484;2024-02-04T09:24:37;101549.53;;;9.45;100.00
12949;BME280;6539;49.476;8.484;2024-02-04T09:27:23;101544.84;;;9.71;100.00
12949;BME280;6539;49.476;8.484;2024-02-04T09:30:10;101536.44;;;9.87;100.00
12949;BME280;6539;49.476;8.484;2024-02-04T09:32:57;101544.41;;;9.99;100.00
12949;BME280;6539;49.476;8.484;2024-02-04T09:35:43;101547.25;;;10.06;99.03
12949;BME280;6539;49.476;8.484;2024-02-04T09:38:29;101541.50;;;10.15;98.71
12949;BME280;6539;49.476;8.484;2024-02-04T09:41:18;101534.59;;;10.24;97.20
12949;BME280;6539;49.476;8.484;2024-02-04T09:46:53;101559.69;;;10.26;96.73
12949;BME280;6539;49.476;8.484;2024-02-04T09:49:39;101553.44;;;10.29;96.75
12949;BME280;6539;49.476;8.484;2024-02-04T09:52:33;101545.97;;;10.26;96.98
12949;BME280;6539;49.476;8.484;2024-02-04T09:55:21;101551.06;;;10.28;97.44
12949;BME280;6539;49.476;8.484;2024-02-04T09:58:07;101552.00;;;10.39;96.95
12949;BME280;6539;49.476;8.484;2024-02-04T10:00:54;101548.88;;;10.40;96.75
12949;BME280;6539;49.476;8.484;2024-02-04T10:03:43;101548.13;;;10.43;95.94
12949;BME280;6539;49.476;8.484;2024-02-04T10:06:29;101544.69;;;10.53;95.87
12949;BME280;6539;49.476;8.484;2024-02-04T10:09:16;101540.44;;;10.59;95.00
12949;BME280;6539;49.476;8.484;2024-02-04T10:12:05;101550.75;;;10.69;94.30
12949;BME280;6539;49.476;8.484;2024-02-04T10:14:51;101546.13;;;10.81;93.69
12949;BME280;6539;49.476;8.484;2024-02-04T10:17:42;101543.44;;;10.88;92.99
12949;BME280;6539;49.476;8.484;2024-02-04T10:20:28;101544.97;;;10.82;93.18
12949;BME280;6539;49.476;8.484;2024-02-04T10:23:14;101552.50;;;10.88;93.47
12949;BME280;6539;49.476;8.484;2024-02-04T10:26:03;101553.78;;;11.01;92.41
12949;BME280;6539;49.476;8.484;2024-02-04T10:28:49;101562.13;;;11.15;91.33
12949;BME280;6539;49.476;8.484;2024-02-04T10:31:39;101570.03;;;11.20;90.82
12949;BME280;6539;49.476;8.484;2024-02-04T10:34:28;101562.84;;;11.09;91.64
12949;BME280;6539;49.476;8.484;2024-02-04T10:37:20;101553.84;;;11.08;92.51
12949;BME280;6539;49.476;8.484;2024-02-04T10:40:07;101559.13;;;11.31;90.51
12949;BME280;6539;49.476;8.484;2024-02-04T10:43:03;101559.97;;;11.42;89.61
12949;BME280;6539;49.476;8.484;2024-02-04T10:45:56;101556.91;;;11.50;88.23
12949;BME280;6539;49.476;8.484;2024-02-04T10:48:55;101564.00;;;11.55;87.91
12949;BME280;6539;49.476;8.484;2024-02-04T10:51:45;101559.25;;;11.48;88.23
12949;BME280;6539;49.476;8.484;2024-02-04T10:54:38;101560.75;;;11.39;88.53
12949;BME280;6539;49.476;8.484;2024-02-04T10:57:25;101559.09;;;11.27;88.96
12949;BME280;6539;49.476;8.484;2024-02-04T11:00:14;101546.38;;;11.09;90.51
12949;BME280;6539;49.476;8.484;2024-02-04T11:03:04;101541.25;;;11.04;90.93
12949;BME280;6539;49.476;8.484;2024-02-04T11:05:54;101535.38;;;11.05;90.72
12949;BME280;6539;49.476;8.484;2024-02-04T11:08:42;101526.69;;;11.00;91.68
12949;BME280;6539;49.476;8.484;2024-02-04T11:11:29;101526.81;;;11.17;89.97
12949;BME280;6539;49.476;8.484;2024-02-04T11:14:18;101543.03;;;11.33;89.27
12949;BME280;6539;49.476;8.484;2024-02-04T11:17:52;101519.75;;;11.20;89.15
12949;BME280;6539;49.476;8.484;2024-02-04T11:27:10;101515.00;;;11.10;88.83
12949;BME280;6539;49.476;8.484;2024-02-04T11:29:56;101518.06;;;11.05;89.84
12949;BME280;6539;49.476;8.484;2024-02-04T11:32:48;101512.94;;;11.00;90.10
12949;BME280;6539;49.476;8.484;2024-02-04T11:35:39;101484.63;;;10.96;90.89
12949;BME280;6539;49.476;8.484;2024-02-04T11:38:35;101470.16;;;10.99;90.81
12949;BME280;6539;49.476;8.484;2024-02-04T11:41:25;101500.19;;;11.25;89.44
12949;BME280;6539;49.476;8.484;2024-02-04T11:44:23;101478.94;;;11.18;89.73
12949;BME280;6539;49.476;8.484;2024-02-04T11:47:22;101474.28;;;11.29;88.96
12949;BME280;6539;49.476;8.484;2024-02-04T11:50:09;101475.09;;;11.33;88.41
12949;BME280;6539;49.476;8.484;2024-02-04T11:53:08;101467.94;;;11.22;89.13
12949;BME280;6539;49.476;8.484;2024-02-04T11:55:57;101467.59;;;11.23;88.92
12949;BME280;6539;49.476;8.484;2024-02-04T11:58:46;101460.47;;;11.19;89.45
12949;BME280;6539;49.476;8.484;2024-02-04T12:01:37;101443.59;;;11.17;90.34
12949;BME280;6539;49.476;8.484;2024-02-04T12:04:27;101453.41;;;11.21;90.22
12949;BME280;6539;49.476;8.484;2024-02-04T12:07:16;101452.66;;;11.28;89.37
12949;BME280;6539;49.476;8.484;2024-02-04T12:10:08;101453.16;;;11.47;89.32
12949;BME280;6539;49.476;8.484;2024-02-04T12:12:54;101464.84;;;12.16;84.26
12949;BME280;6539;49.476;8.484;2024-02-04T12:15:41;101503.63;;;11.76;85.24
12949;BME280;6539;49.476;8.484;2024-02-04T12:18:29;101463.84;;;11.60;86.33
12949;BME280;6539;49.476;8.484;2024-02-04T12:21:18;101454.06;;;11.69;85.97
12949;BME280;6539;49.476;8.484;2024-02-04T12:24:07;101457.94;;;11.61;87.03
12949;BME280;6539;49.476;8.484;2024-02-04T12:26:55;101465.09;;;11.69;86.50
12949;BME280;6539;49.476;8.484;2024-02-04T12:29:41;101461.25;;;11.95;85.10
12949;BME280;6539;49.476;8.484;2024-02-04T12:32:30;101451.81;;;11.92;85.16
12949;BME280;6539;49.476;8.484;2024-02-04T12:35:21;101442.38;;;11.93;85.34
12949;BME280;6539;49.476;8.484;2024-02-04T12:38:08;101452.16;;;11.77;85.86
12949;BME280;6539;49.476;8.484;2024-02-04T12:41:02;101456.09;;;11.79;85.52
12949;BME280;6539;49.476;8.484;2024-02-04T12:43:58;101468.19;;;11.64;86.31
12949;BME280;6539;49.476;8.484;2024-02-04T12:46:49;101474.75;;;11.42;87.88
12949;BME280;6539;49.476;8.484;2024-02-04T12:49:38;101458.59;;;11.33;88.88
12949;BME280;6539;49.476;8.484;2024-02-04T12:52:24;101453.06;;;11.26;89.62
12949;BME280;6539;49.476;8.484;2024-02-04T12:55:23;101447.59;;;11.30;89.65
12949;BME280;6539;49.476;8.484;2024-02-04T12:58:13;101435.81;;;11.36;89.91
12949;BME280;6539;49.476;8.484;2024-02-04T13:01:05;101435.06;;;11.39;88.91
12949;BME280;6539;49.476;8.484;2024-02-04T13:03:55;101440.16;;;11.41;89.13
12949;BME280;6539;49.476;8.484;2024-02-04T13:06:41;101431.13;;;11.37;89.83
12949;BME280;6539;49.476;8.484;2024-02-04T13:09:27;101416.22;;;11.38;89.73
12949;BME280;6539;49.476;8.484;2024-02-04T13:12:15;101417.81;;;11.46;89.08
12949;BME280;6539;49.476;8.484;2024-02-04T13:15:03;101435.81;;;11.33;89.94
12949;BME280;6539;49.476;8.484;2024-02-04T13:17:50;101433.41;;;11.21;90.75
12949;BME280;6539;49.476;8.484;2024-02-04T13:20:36;101434.91;;;11.11;91.59
12949;BME280;6539;49.476;8.484;2024-02-04T13:23:26;101421.50;;;11.06;92.46
12949;BME280;6539;49.476;8.484;2024-02-04T13:26:12;101426.25;;;11.06;92.39
12949;BME280;6539;49.476;8.484;2024-02-04T13:28:58;101414.88;;;11.11;92.45
12949;BME280;6539;49.476;8.484;2024-02-04T13:31:44;101418.00;;;11.13;92.30
12949;BME280;6539;49.476;8.484;2024-02-04T13:34:33;101408.66;;;11.21;91.55
12949;BME280;6539;49.476;8.484;2024-02-04T13:37:21;101413.75;;;11.19;92.18
12949;BME280;6539;49.476;8.484;2024-02-04T13:40:08;101414.13;;;11.17;92.25
12949;BME280;6539;49.476;8.484;2024-02-04T13:42:57;101416.78;;;11.00;93.63
12949;BME280;6539;49.476;8.484;2024-02-04T13:45:46;101401.53;;;11.09;93.20
12949;BME280;6539;49.476;8.484;2024-02-04T13:48:35;101418.41;;;11.08;93.57
12949;BME280;6539;49.476;8.484;2024-02-04T13:51:21;101419.94;;;11.05;94.17
12949;BME280;6539;49.476;8.484;2024-02-04T13:54:07;101414.88;;;11.11;93.91
12949;BME280;6539;49.476;8.484;2024-02-04T13:56:57;101428.72;;;11.25;92.66
12949;BME280;6539;49.476;8.484;2024-02-04T13:59:43;101425.09;;;11.14;93.56
12949;BME280;6539;49.476;8.484;2024-02-04T14:02:29;101422.72;;;11.09;94.05
12949;BME280;6539;49.476;8.484;2024-02-04T14:05:15;101421.50;;;11.06;94.60
12949;BME280;6539;49.476;8.484;2024-02-04T14:08:01;101419.13;;;11.01;95.31
12949;BME280;6539;49.476;8.484;2024-02-04T14:10:51;101419.94;;;11.05;95.00
12949;BME280;6539;49.476;8.484;2024-02-04T14:13:42;101412.91;;;11.11;94.42
12949;BME280;6539;49.476;8.484;2024-02-04T14:16:31;101415.72;;;11.18;94.54
12949;BME280;6539;49.476;8.484;2024-02-04T14:19:19;101401.91;;;11.11;94.59
12949;BME280;6539;49.476;8.484;2024-02-04T14:22:05;101407.41;;;11.11;94.64
12949;BME280;6539;49.476;8.484;2024-02-04T14:24:53;101394.91;;;11.24;94.11
12949;BME280;6539;49.476;8.484;2024-02-04T14:27:45;101387.88;;;11.27;93.36
12949;BME280;6539;49.476;8.484;2024-02-04T14:30:31;101387.03;;;11.19;94.29
12949;BME280;6539;49.476;8.484;2024-02-04T14:33:17;101389.78;;;11.19;94.03
12949;BME280;6539;49.476;8.484;2024-02-04T14:36:07;101393.72;;;11.18;94.01
12949;BME280;6539;49.476;8.484;2024-02-04T14:38:56;101407.47;;;11.22;94.08
12949;BME280;6539;49.476;8.484;2024-02-04T14:41:44;101400.41;;;11.21;94.08
12949;BME280;6539;49.476;8.484;2024-02-04T14:44:32;101403.53;;;11.16;94.24
12949;BME280;6539;49.476;8.484;2024-02-04T14:47:18;101409.34;;;11.07;94.74
12949;BME280;6539;49.476;8.484;2024-02-04T14:50:05;101414.50;;;11.12;95.11
12949;BME280;6539;49.476;8.484;2024-02-04T14:52:53;101412.91;;;11.11;94.98
12949;BME280;6539;49.476;8.484;2024-02-04T14:55:44;101423.09;;;11.04;95.42
12949;BME280;6539;49.476;8.484;2024-02-04T14:58:30;101413.25;;;11.06;95.25
12949;BME280;6539;49.476;8.484;2024-02-04T15:01:16;101405.00;;;11.03;95.64
12949;BME280;6539;49.476;8.484;2024-02-04T15:04:07;101413.31;;;11.10;95.58